sensor_id;sensor_type;location;lat;lon;timestamp;P1;durP1;ratioP1;P2;durP2;ratioP2
46355;SDS011;32066;49.474;11.106;2022-12-16T00:00:27;26.77;;;15.93;;
46355;SDS011;32066;49.474;11.106;2022-12-16T00:02:56;29.55;;;16.63;;
46355;SDS011;32066;49.474;11.106;2022-12-16T00:05:25;31.52;;;17.80;;
46355;SDS011;32066;49.474;11.106;2022-12-16T00:07:51;27.60;;;16.08;;
46355;SDS011;32066;49.474;11.106;2022-12-16T00:10:19;29.65;;;16.85;;
46355;SDS011;32066;49.474;11.106;2022-12-16T00:12:46;27.48;;;15.55;;
46355;SDS011;32066;49.474;11.106;2022-12-16T00:15:13;28.00;;;15.75;;
46355;SDS011;32066;49.474;11.106;2022-12-16T00:17:40;25.42;;;15.10;;
46355;SDS011;32066;49.474;11.106;2022-12-16T00:20:09;27.20;;;15.40;;
46355;SDS011;32066;49.474;11.106;2022-12-16T00:22:36;27.35;;;16.08;;
46355;SDS011;32066;49.474;11.106;2022-12-16T00:25:03;27.20;;;15.25;;
46355;SDS011;32066;49.474;11.106;2022-12-16T00:27:31;26.27;;;14.55;;
46355;SDS011;32066;49.474;11.106;2022-12-16T00:29:58;25.60;;;15.20;;
46355;SDS011;32066;49.474;11.106;2022-12-16T00:32:25;26.80;;;15.50;;
46355;SDS011;32066;49.474;11.106;2022-12-16T00:34:52;28.00;;;16.17;;
46355;SDS011;32066;49.474;11.106;2022-12-16T00:37:20;26.48;;;15.75;;
46355;SDS011;32066;49.474;11.106;2022-12-16T00:39:47;25.45;;;14.65;;
46355;SDS011;32066;49.474;11.106;2022-12-16T00:42:13;23.83;;;14.00;;
46355;SDS011;32066;49.474;11.106;2022-12-16T00:44:40;26.00;;;14.90;;
46355;SDS011;32066;49.474;11.106;2022-12-16T00:47:07;24.75;;;15.15;;
46355;SDS011;32066;49.474;11.106;2022-12-16T00:49:34;25.27;;;15.02;;
46355;SDS011;32066;49.474;11.106;2022-12-16T00:52:01;26.20;;;14.98;;
46355;SDS011;32066;49.474;11.106;2022-12-16T00:54:29;26.40;;;15.73;;
46355;SDS011;32066;49.474;11.106;2022-12-16T00:56:56;27.98;;;14.90;;
46355;SDS011;32066;49.474;11.106;2022-12-16T00:59:22;24.73;;;15.18;;
46355;SDS011;32066;49.474;11.106;2022-12-16T01:01:49;29.05;;;16.38;;
46355;SDS011;32066;49.474;11.106;2022-12-16T01:04:16;25.40;;;14.40;;
46355;SDS011;32066;49.474;11.106;2022-12-16T01:06:43;25.25;;;14.82;;
46355;SDS011;32066;49.474;11.106;2022-12-16T01:09:09;25.73;;;15.27;;
46355;SDS011;32066;49.474;11.106;2022-12-16T01:11:37;26.10;;;14.73;;
46355;SDS011;32066;49.474;11.106;2022-12-16T01:14:04;24.35;;;14.80;;
46355;SDS011;32066;49.474;11.106;2022-12-16T01:16:31;25.65;;;15.23;;
46355;SDS011;32066;49.474;11.106;2022-12-16T01:18:59;24.67;;;15.60;;
46355;SDS011;32066;49.474;11.106;2022-12-16T01:21:26;26.75;;;15.45;;
46355;SDS011;32066;49.474;11.106;2022-12-16T01:23:53;28.58;;;15.18;;
46355;SDS011;32066;49.474;11.106;2022-12-16T01:26:19;27.60;;;15.50;;
46355;SDS011;32066;49.474;11.106;2022-12-16T01:28:48;24.58;;;14.40;;
46355;SDS011;32066;49.474;11.106;2022-12-16T01:31:15;26.25;;;15.30;;
46355;SDS011;32066;49.474;11.106;2022-12-16T01:33:43;27.20;;;15.25;;
46355;SDS011;32066;49.474;11.106;2022-12-16T01:36:10;27.15;;;15.43;;
46355;SDS011;32066;49.474;11.106;2022-12-16T01:38:37;28.08;;;15.73;;
46355;SDS011;32066;49.474;11.106;2022-12-16T01:41:08;27.50;;;15.93;;
46355;SDS011;32066;49.474;11.106;2022-12-16T01:43:36;29.00;;;16.02;;
46355;SDS011;32066;49.474;11.106;2022-12-16T01:46:06;28.10;;;16.52;;
46355;SDS011;32066;49.474;11.106;2022-12-16T01:48:40;25.67;;;14.80;;
46355;SDS011;32066;49.474;11.106;2022-12-16T01:51:10;30.05;;;16.23;;
46355;SDS011;32066;49.474;11.106;2022-12-16T01:53:43;27.75;;;15.50;;
46355;SDS011;32066;49.474;11.106;2022-12-16T01:56:13;27.33;;;15.23;;
46355;SDS011;32066;49.474;11.106;2022-12-16T01:58:49;29.67;;;16.00;;
46355;SDS011;32066;49.474;11.106;2022-12-16T02:01:18;28.08;;;16.20;;
46355;SDS011;32066;49.474;11.106;2022-12-16T02:03:45;32.05;;;18.77;;
46355;SDS011;32066;49.474;11.106;2022-12-16T02:06:12;26.73;;;15.55;;
46355;SDS011;32066;49.474;11.106;2022-12-16T02:08:39;27.08;;;16.25;;
46355;SDS011;32066;49.474;11.106;2022-12-16T02:14:17;29.20;;;16.30;;
46355;SDS011;32066;49.474;11.106;2022-12-16T02:16:56;28.77;;;16.45;;
46355;SDS011;32066;49.474;11.106;2022-12-16T02:22:39;30.02;;;16.33;;
46355;SDS011;32066;49.474;11.106;2022-12-16T02:28:33;26.92;;;15.60;;
46355;SDS011;32066;49.474;11.106;2022-12-16T02:31:17;27.15;;;15.52;;
46355;SDS011;32066;49.474;11.106;2022-12-16T02:36:41;28.02;;;16.45;;
46355;SDS011;32066;49.474;11.106;2022-12-16T02:39:17;29.80;;;16.88;;
46355;SDS011;32066;49.474;11.106;2022-12-16T02:41:49;28.10;;;16.15;;
46355;SDS011;32066;49.474;11.106;2022-12-16T02:44:20;28.48;;;16.25;;
46355;SDS011;32066;49.474;11.106;2022-12-16T02:46:58;29.75;;;17.02;;
46355;SDS011;32066;49.474;11.106;2022-12-16T02:52:09;28.25;;;16.40;;
46355;SDS011;32066;49.474;11.106;2022-12-16T02:54:38;28.42;;;15.00;;
46355;SDS011;32066;49.474;11.106;2022-12-16T02:57:06;29.38;;;16.10;;
46355;SDS011;32066;49.474;11.106;2022-12-16T02:59:46;29.75;;;16.30;;
46355;SDS011;32066;49.474;11.106;2022-12-16T03:02:21;27.58;;;14.77;;
46355;SDS011;32066;49.474;11.106;2022-12-16T03:04:51;27.85;;;15.73;;
46355;SDS011;32066;49.474;11.106;2022-12-16T03:07:22;26.27;;;15.05;;
46355;SDS011;32066;49.474;11.106;2022-12-16T03:09:51;28.95;;;16.33;;
46355;SDS011;32066;49.474;11.106;2022-12-16T03:12:20;28.10;;;15.73;;
46355;SDS011;32066;49.474;11.106;2022-12-16T03:14:50;26.00;;;15.07;;
46355;SDS011;32066;49.474;11.106;2022-12-16T03:17:20;29.42;;;16.17;;
46355;SDS011;32066;49.474;11.106;2022-12-16T03:19:51;27.80;;;15.88;;
46355;SDS011;32066;49.474;11.106;2022-12-16T03:22:22;28.08;;;15.48;;
46355;SDS011;32066;49.474;11.106;2022-12-16T03:24:53;28.45;;;16.50;;
46355;SDS011;32066;49.474;11.106;2022-12-16T03:27:22;27.83;;;15.25;;
46355;SDS011;32066;49.474;11.106;2022-12-16T03:29:55;30.60;;;17.83;;
46355;SDS011;32066;49.474;11.106;2022-12-16T03:32:31;28.77;;;16.15;;
46355;SDS011;32066;49.474;11.106;2022-12-16T03:35:01;29.52;;;15.65;;
46355;SDS011;32066;49.474;11.106;2022-12-16T03:37:33;28.83;;;15.57;;
46355;SDS011;32066;49.474;11.106;2022-12-16T03:40:03;29.17;;;16.40;;
46355;SDS011;32066;49.474;11.106;2022-12-16T03:42:32;28.20;;;15.82;;
46355;SDS011;32066;49.474;11.106;2022-12-16T03:45:01;27.55;;;16.17;;
46355;SDS011;32066;49.474;11.106;2022-12-16T03:47:31;29.92;;;16.67;;
46355;SDS011;32066;49.474;11.106;2022-12-16T03:49:58;32.08;;;17.55;;
46355;SDS011;32066;49.474;11.106;2022-12-16T03:52:25;32.08;;;16.83;;
46355;SDS011;32066;49.474;11.106;2022-12-16T03:54:51;30.92;;;16.05;;
46355;SDS011;32066;49.474;11.106;2022-12-16T03:57:19;29.05;;;15.52;;
46355;SDS011;32066;49.474;11.106;2022-12-16T03:59:46;24.90;;;14.68;;
46355;SDS011;32066;49.474;11.106;2022-12-16T04:02:13;28.42;;;15.48;;
46355;SDS011;32066;49.474;11.106;2022-12-16T04:04:42;28.45;;;15.52;;
46355;SDS011;32066;49.474;11.106;2022-12-16T04:07:08;23.27;;;14.40;;
46355;SDS011;32066;49.474;11.106;2022-12-16T04:09:48;27.02;;;15.15;;
46355;SDS011;32066;49.474;11.106;2022-12-16T04:12:16;27.65;;;14.40;;
46355;SDS011;32066;49.474;11.106;2022-12-16T04:15:01;24.40;;;14.30;;
46355;SDS011;32066;49.474;11.106;2022-12-16T04:17:56;26.85;;;15.02;;
46355;SDS011;32066;49.474;11.106;2022-12-16T04:20:43;26.83;;;15.27;;
46355;SDS011;32066;49.474;11.106;2022-12-16T04:23:29;25.23;;;14.55;;
46355;SDS011;32066;49.474;11.106;2022-12-16T04:26:16;24.58;;;13.65;;
46355;SDS011;32066;49.474;11.106;2022-12-16T04:28:43;21.80;;;12.77;;
46355;SDS011;32066;49.474;11.106;2022-12-16T04:31:09;25.83;;;13.77;;
46355;SDS011;32066;49.474;11.106;2022-12-16T04:33:36;25.33;;;14.40;;
46355;SDS011;32066;49.474;11.106;2022-12-16T04:36:22;26.60;;;13.65;;
46355;SDS011;32066;49.474;11.106;2022-12-16T04:39:06;23.83;;;12.80;;
46355;SDS011;32066;49.474;11.106;2022-12-16T04:41:51;25.88;;;13.70;;
46355;SDS011;32066;49.474;11.106;2022-12-16T04:44:36;25.00;;;13.23;;
46355;SDS011;32066;49.474;11.106;2022-12-16T04:47:20;23.50;;;13.43;;
46355;SDS011;32066;49.474;11.106;2022-12-16T04:50:04;23.42;;;13.68;;
46355;SDS011;32066;49.474;11.106;2022-12-16T04:52:50;24.08;;;13.60;;
46355;SDS011;32066;49.474;11.106;2022-12-16T04:55:35;24.17;;;13.93;;
46355;SDS011;32066;49.474;11.106;2022-12-16T04:58:19;25.73;;;13.43;;
46355;SDS011;32066;49.474;11.106;2022-12-16T05:03:50;24.17;;;13.32;;
46355;SDS011;32066;49.474;11.106;2022-12-16T05:06:34;23.33;;;13.32;;
46355;SDS011;32066;49.474;11.106;2022-12-16T05:09:19;22.70;;;12.85;;
46355;SDS011;32066;49.474;11.106;2022-12-16T05:12:04;23.88;;;13.90;;
46355;SDS011;32066;49.474;11.106;2022-12-16T05:14:48;25.75;;;13.60;;
46355;SDS011;32066;49.474;11.106;2022-12-16T05:17:32;24.13;;;12.35;;
46355;SDS011;32066;49.474;11.106;2022-12-16T05:20:17;25.05;;;13.85;;
46355;SDS011;32066;49.474;11.106;2022-12-16T05:23:01;25.23;;;14.07;;
46355;SDS011;32066;49.474;11.106;2022-12-16T05:25:46;24.05;;;14.48;;
46355;SDS011;32066;49.474;11.106;2022-12-16T05:28:31;21.93;;;13.60;;
46355;SDS011;32066;49.474;11.106;2022-12-16T05:31:15;24.92;;;12.52;;
46355;SDS011;32066;49.474;11.106;2022-12-16T05:33:59;22.95;;;12.73;;
46355;SDS011;32066;49.474;11.106;2022-12-16T05:36:43;24.35;;;13.38;;
46355;SDS011;32066;49.474;11.106;2022-12-16T05:39:27;24.83;;;13.85;;
46355;SDS011;32066;49.474;11.106;2022-12-16T05:42:13;22.02;;;12.68;;
46355;SDS011;32066;49.474;11.106;2022-12-16T05:44:57;24.55;;;14.25;;
46355;SDS011;32066;49.474;11.106;2022-12-16T05:47:41;24.23;;;13.52;;
46355;SDS011;32066;49.474;11.106;2022-12-16T05:50:26;23.75;;;13.40;;
46355;SDS011;32066;49.474;11.106;2022-12-16T05:53:10;22.95;;;13.60;;
46355;SDS011;32066;49.474;11.106;2022-12-16T05:55:54;24.35;;;13.43;;
46355;SDS011;32066;49.474;11.106;2022-12-16T05:58:40;23.23;;;12.90;;
46355;SDS011;32066;49.474;11.106;2022-12-16T06:01:36;24.08;;;12.38;;
46355;SDS011;32066;49.474;11.106;2022-12-16T06:04:21;23.60;;;12.60;;
46355;SDS011;32066;49.474;11.106;2022-12-16T06:07:05;22.40;;;12.52;;
46355;SDS011;32066;49.474;11.106;2022-12-16T06:09:49;21.67;;;13.00;;
46355;SDS011;32066;49.474;11.106;2022-12-16T06:12:34;22.55;;;12.43;;
46355;SDS011;32066;49.474;11.106;2022-12-16T06:15:19;22.58;;;12.43;;
46355;SDS011;32066;49.474;11.106;2022-12-16T06:18:04;25.08;;;12.75;;
46355;SDS011;32066;49.474;11.106;2022-12-16T06:20:48;21.15;;;12.18;;
46355;SDS011;32066;49.474;11.106;2022-12-16T06:23:32;22.35;;;12.65;;
46355;SDS011;32066;49.474;11.106;2022-12-16T06:26:16;23.98;;;12.63;;
46355;SDS011;32066;49.474;11.106;2022-12-16T06:29:07;20.67;;;11.52;;
46355;SDS011;32066;49.474;11.106;2022-12-16T06:31:55;18.95;;;11.55;;
46355;SDS011;32066;49.474;11.106;2022-12-16T06:34:39;25.07;;;12.57;;
46355;SDS011;32066;49.474;11.106;2022-12-16T06:37:23;21.17;;;11.82;;
46355;SDS011;32066;49.474;11.106;2022-12-16T06:40:08;19.48;;;11.32;;
46355;SDS011;32066;49.474;11.106;2022-12-16T06:42:53;21.58;;;11.68;;
46355;SDS011;32066;49.474;11.106;2022-12-16T06:45:37;22.45;;;11.75;;
46355;SDS011;32066;49.474;11.106;2022-12-16T06:48:23;19.05;;;11.00;;
46355;SDS011;32066;49.474;11.106;2022-12-16T06:51:07;20.88;;;11.80;;
46355;SDS011;32066;49.474;11.106;2022-12-16T06:53:51;20.27;;;10.48;;
46355;SDS011;32066;49.474;11.106;2022-12-16T06:56:36;23.88;;;11.82;;
46355;SDS011;32066;49.474;11.106;2022-12-16T06:59:20;19.70;;;11.10;;
46355;SDS011;32066;49.474;11.106;2022-12-16T07:02:06;21.60;;;11.52;;
46355;SDS011;32066;49.474;11.106;2022-12-16T07:04:53;22.30;;;11.20;;
46355;SDS011;32066;49.474;11.106;2022-12-16T07:07:37;19.83;;;10.95;;
46355;SDS011;32066;49.474;11.106;2022-12-16T07:10:22;19.98;;;10.68;;
46355;SDS011;32066;49.474;11.106;2022-12-16T07:13:06;19.83;;;10.93;;
46355;SDS011;32066;49.474;11.106;2022-12-16T07:15:50;17.23;;;9.98;;
46355;SDS011;32066;49.474;11.106;2022-12-16T07:18:34;17.27;;;10.35;;
46355;SDS011;32066;49.474;11.106;2022-12-16T07:21:20;19.38;;;10.80;;
46355;SDS011;32066;49.474;11.106;2022-12-16T07:24:04;17.93;;;9.87;;
46355;SDS011;32066;49.474;11.106;2022-12-16T07:26:49;19.02;;;9.70;;
46355;SDS011;32066;49.474;11.106;2022-12-16T07:29:33;18.15;;;10.27;;
46355;SDS011;32066;49.474;11.106;2022-12-16T07:32:17;16.77;;;9.18;;
46355;SDS011;32066;49.474;11.106;2022-12-16T07:35:02;16.50;;;8.93;;
46355;SDS011;32066;49.474;11.106;2022-12-16T07:37:49;19.65;;;9.35;;
46355;SDS011;32066;49.474;11.106;2022-12-16T07:40:33;16.55;;;8.77;;
46355;SDS011;32066;49.474;11.106;2022-12-16T07:43:17;17.13;;;8.80;;
46355;SDS011;32066;49.474;11.106;2022-12-16T07:46:02;17.92;;;8.80;;
46355;SDS011;32066;49.474;11.106;2022-12-16T07:48:46;17.50;;;9.05;;
46355;SDS011;32066;49.474;11.106;2022-12-16T07:51:30;15.68;;;8.98;;
46355;SDS011;32066;49.474;11.106;2022-12-16T07:54:16;16.23;;;8.45;;
46355;SDS011;32066;49.474;11.106;2022-12-16T07:57:00;16.95;;;8.95;;
46355;SDS011;32066;49.474;11.106;2022-12-16T07:59:44;18.75;;;8.90;;
46355;SDS011;32066;49.474;11.106;2022-12-16T08:02:37;16.00;;;8.68;;
46355;SDS011;32066;49.474;11.106;2022-12-16T08:05:21;17.63;;;8.43;;
46355;SDS011;32066;49.474;11.106;2022-12-16T08:08:05;14.93;;;8.15;;
46355;SDS011;32066;49.474;11.106;2022-12-16T08:10:51;15.88;;;8.32;;
46355;SDS011;32066;49.474;11.106;2022-12-16T08:13:35;16.33;;;8.07;;
46355;SDS011;32066;49.474;11.106;2022-12-16T08:16:19;17.05;;;8.63;;
46355;SDS011;32066;49.474;11.106;2022-12-16T08:19:04;13.35;;;7.53;;
46355;SDS011;32066;49.474;11.106;2022-12-16T08:21:48;15.00;;;7.68;;
46355;SDS011;32066;49.474;11.106;2022-12-16T08:24:32;16.23;;;9.07;;
46355;SDS011;32066;49.474;11.106;2022-12-16T08:27:33;12.40;;;7.28;;
46355;SDS011;32066;49.474;11.106;2022-12-16T08:30:17;13.70;;;7.63;;
46355;SDS011;32066;49.474;11.106;2022-12-16T08:33:01;16.40;;;7.70;;
46355;SDS011;32066;49.474;11.106;2022-12-16T08:35:46;13.27;;;7.28;;
46355;SDS011;32066;49.474;11.106;2022-12-16T08:38:31;14.93;;;7.82;;
46355;SDS011;32066;49.474;11.106;2022-12-16T08:41:15;13.52;;;7.82;;
46355;SDS011;32066;49.474;11.106;2022-12-16T08:44:01;14.90;;;7.28;;
46355;SDS011;32066;49.474;11.106;2022-12-16T08:46:45;15.77;;;7.38;;
46355;SDS011;32066;49.474;11.106;2022-12-16T08:49:29;15.02;;;7.95;;
46355;SDS011;32066;49.474;11.106;2022-12-16T08:52:14;15.38;;;7.55;;
46355;SDS011;32066;49.474;11.106;2022-12-16T08:54:58;14.27;;;7.85;;
46355;SDS011;32066;49.474;11.106;2022-12-16T08:57:42;15.70;;;8.27;;
46355;SDS011;32066;49.474;11.106;2022-12-16T09:00:36;13.90;;;7.85;;
46355;SDS011;32066;49.474;11.106;2022-12-16T09:03:20;15.60;;;7.53;;
46355;SDS011;32066;49.474;11.106;2022-12-16T09:06:04;14.60;;;7.28;;
46355;SDS011;32066;49.474;11.106;2022-12-16T09:08:49;15.90;;;6.75;;
46355;SDS011;32066;49.474;11.106;2022-12-16T09:11:33;12.50;;;7.30;;
46355;SDS011;32066;49.474;11.106;2022-12-16T09:14:17;15.20;;;7.80;;
46355;SDS011;32066;49.474;11.106;2022-12-16T09:17:03;15.05;;;7.10;;
46355;SDS011;32066;49.474;11.106;2022-12-16T09:19:47;13.52;;;7.07;;
46355;SDS011;32066;49.474;11.106;2022-12-16T09:22:31;15.82;;;7.70;;
46355;SDS011;32066;49.474;11.106;2022-12-16T09:25:15;13.48;;;7.55;;
46355;SDS011;32066;49.474;11.106;2022-12-16T09:27:59;13.13;;;7.40;;
46355;SDS011;32066;49.474;11.106;2022-12-16T09:30:44;14.00;;;7.18;;
46355;SDS011;32066;49.474;11.106;2022-12-16T09:33:29;14.32;;;8.43;;
46355;SDS011;32066;49.474;11.106;2022-12-16T09:36:22;18.42;;;8.52;;
46355;SDS011;32066;49.474;11.106;2022-12-16T09:39:06;14.05;;;8.02;;
46355;SDS011;32066;49.474;11.106;2022-12-16T09:41:54;15.18;;;8.60;;
46355;SDS011;32066;49.474;11.106;2022-12-16T09:44:46;18.88;;;9.77;;
46355;SDS011;32066;49.474;11.106;2022-12-16T09:47:44;16.65;;;8.80;;
46355;SDS011;32066;49.474;11.106;2022-12-16T09:50:39;15.95;;;9.23;;
46355;SDS011;32066;49.474;11.106;2022-12-16T09:53:26;13.88;;;9.00;;
46355;SDS011;32066;49.474;11.106;2022-12-16T09:56:15;15.23;;;8.93;;
46355;SDS011;32066;49.474;11.106;2022-12-16T09:59:02;14.05;;;8.20;;
46355;SDS011;32066;49.474;11.106;2022-12-16T10:01:52;13.10;;;8.48;;
46355;SDS011;32066;49.474;11.106;2022-12-16T10:04:52;14.75;;;7.68;;
46355;SDS011;32066;49.474;11.106;2022-12-16T10:07:39;14.07;;;7.90;;
46355;SDS011;32066;49.474;11.106;2022-12-16T10:10:30;15.05;;;8.60;;
46355;SDS011;32066;49.474;11.106;2022-12-16T10:13:25;15.32;;;9.18;;
46355;SDS011;32066;49.474;11.106;2022-12-16T10:16:18;14.43;;;8.82;;
46355;SDS011;32066;49.474;11.106;2022-12-16T10:19:13;16.60;;;9.25;;
46355;SDS011;32066;49.474;11.106;2022-12-16T10:22:08;14.20;;;8.43;;
46355;SDS011;32066;49.474;11.106;2022-12-16T10:25:05;15.27;;;8.82;;
46355;SDS011;32066;49.474;11.106;2022-12-16T10:27:56;14.73;;;9.00;;
46355;SDS011;32066;49.474;11.106;2022-12-16T10:30:47;15.48;;;8.65;;
46355;SDS011;32066;49.474;11.106;2022-12-16T10:33:33;17.13;;;9.20;;
46355;SDS011;32066;49.474;11.106;2022-12-16T10:36:19;15.63;;;8.40;;
46355;SDS011;32066;49.474;11.106;2022-12-16T10:39:05;13.02;;;7.78;;
46355;SDS011;32066;49.474;11.106;2022-12-16T10:42:03;13.93;;;8.35;;
46355;SDS011;32066;49.474;11.106;2022-12-16T10:44:58;16.17;;;8.73;;
46355;SDS011;32066;49.474;11.106;2022-12-16T10:47:48;16.17;;;8.57;;
46355;SDS011;32066;49.474;11.106;2022-12-16T10:50:33;14.52;;;9.10;;
46355;SDS011;32066;49.474;11.106;2022-12-16T10:53:18;14.95;;;8.80;;
46355;SDS011;32066;49.474;11.106;2022-12-16T10:56:12;15.48;;;8.93;;
46355;SDS011;32066;49.474;11.106;2022-12-16T10:59:07;16.27;;;9.02;;
46355;SDS011;32066;49.474;11.106;2022-12-16T11:04:40;13.80;;;8.45;;
46355;SDS011;32066;49.474;11.106;2022-12-16T11:07:26;18.67;;;10.38;;
46355;SDS011;32066;49.474;11.106;2022-12-16T11:10:27;15.10;;;8.85;;
46355;SDS011;32066;49.474;11.106;2022-12-16T11:13:19;16.60;;;10.18;;
46355;SDS011;32066;49.474;11.106;2022-12-16T11:16:11;14.90;;;9.38;;
46355;SDS011;32066;49.474;11.106;2022-12-16T11:18:59;17.25;;;10.23;;
46355;SDS011;32066;49.474;11.106;2022-12-16T11:21:44;18.77;;;10.32;;
46355;SDS011;32066;49.474;11.106;2022-12-16T11:24:29;19.02;;;10.10;;
46355;SDS011;32066;49.474;11.106;2022-12-16T11:27:15;19.00;;;9.68;;
46355;SDS011;32066;49.474;11.106;2022-12-16T11:30:14;17.35;;;10.00;;
46355;SDS011;32066;49.474;11.106;2022-12-16T11:33:03;20.20;;;11.35;;
46355;SDS011;32066;49.474;11.106;2022-12-16T11:36:04;20.40;;;10.07;;
46355;SDS011;32066;49.474;11.106;2022-12-16T11:38:53;15.93;;;9.82;;
46355;SDS011;32066;49.474;11.106;2022-12-16T11:41:38;18.80;;;10.60;;
46355;SDS011;32066;49.474;11.106;2022-12-16T11:44:26;19.33;;;11.07;;
46355;SDS011;32066;49.474;11.106;2022-12-16T11:47:18;18.00;;;10.85;;
46355;SDS011;32066;49.474;11.106;2022-12-16T11:50:09;17.58;;;10.68;;
46355;SDS011;32066;49.474;11.106;2022-12-16T11:52:57;18.70;;;10.68;;
46355;SDS011;32066;49.474;11.106;2022-12-16T11:55:43;19.50;;;11.45;;
46355;SDS011;32066;49.474;11.106;2022-12-16T11:58:41;21.45;;;11.65;;
46355;SDS011;32066;49.474;11.106;2022-12-16T12:01:29;20.08;;;11.13;;
46355;SDS011;32066;49.474;11.106;2022-12-16T12:04:17;18.45;;;11.18;;
46355;SDS011;32066;49.474;11.106;2022-12-16T12:10:27;20.67;;;11.98;;
46355;SDS011;32066;49.474;11.106;2022-12-16T12:13:33;19.38;;;11.68;;
46355;SDS011;32066;49.474;11.106;2022-12-16T12:16:25;22.52;;;12.07;;
46355;SDS011;32066;49.474;11.106;2022-12-16T12:19:19;22.08;;;12.52;;
46355;SDS011;32066;49.474;11.106;2022-12-16T12:22:09;18.15;;;11.23;;
46355;SDS011;32066;49.474;11.106;2022-12-16T12:25:03;19.70;;;12.02;;
46355;SDS011;32066;49.474;11.106;2022-12-16T12:27:53;21.67;;;12.48;;
46355;SDS011;32066;49.474;11.106;2022-12-16T12:30:48;23.63;;;11.93;;
46355;SDS011;32066;49.474;11.106;2022-12-16T12:33:42;20.05;;;11.90;;
46355;SDS011;32066;49.474;11.106;2022-12-16T12:36:33;21.33;;;12.77;;
46355;SDS011;32066;49.474;11.106;2022-12-16T12:39:26;21.77;;;12.75;;
46355;SDS011;32066;49.474;11.106;2022-12-16T12:42:21;21.80;;;13.15;;
46355;SDS011;32066;49.474;11.106;2022-12-16T12:45:33;20.85;;;12.35;;
46355;SDS011;32066;49.474;11.106;2022-12-16T12:48:29;22.63;;;13.32;;
46355;SDS011;32066;49.474;11.106;2022-12-16T12:51:23;25.40;;;13.77;;
46355;SDS011;32066;49.474;11.106;2022-12-16T12:54:14;23.95;;;14.07;;
46355;SDS011;32066;49.474;11.106;2022-12-16T12:57:04;24.60;;;14.48;;
46355;SDS011;32066;49.474;11.106;2022-12-16T12:59:54;23.92;;;14.60;;
46355;SDS011;32066;49.474;11.106;2022-12-16T13:02:44;22.67;;;13.73;;
46355;SDS011;32066;49.474;11.106;2022-12-16T13:05:33;25.35;;;13.90;;
46355;SDS011;32066;49.474;11.106;2022-12-16T13:08:30;24.23;;;14.32;;
46355;SDS011;32066;49.474;11.106;2022-12-16T13:11:16;27.08;;;14.85;;
46355;SDS011;32066;49.474;11.106;2022-12-16T13:14:00;23.48;;;14.27;;
46355;SDS011;32066;49.474;11.106;2022-12-16T13:19:52;26.55;;;14.80;;
46355;SDS011;32066;49.474;11.106;2022-12-16T13:22:40;23.75;;;14.27;;
46355;SDS011;32066;49.474;11.106;2022-12-16T13:25:35;24.63;;;14.20;;
46355;SDS011;32066;49.474;11.106;2022-12-16T13:28:26;28.50;;;14.45;;
46355;SDS011;32066;49.474;11.106;2022-12-16T13:31:13;24.83;;;14.93;;
46355;SDS011;32066;49.474;11.106;2022-12-16T13:34:02;26.08;;;14.88;;
46355;SDS011;32066;49.474;11.106;2022-12-16T13:36:55;23.98;;;13.55;;
46355;SDS011;32066;49.474;11.106;2022-12-16T13:39:41;26.75;;;14.82;;
46355;SDS011;32066;49.474;11.106;2022-12-16T13:42:31;25.40;;;14.27;;
46355;SDS011;32066;49.474;11.106;2022-12-16T13:45:34;26.80;;;15.18;;
46355;SDS011;32066;49.474;11.106;2022-12-16T13:48:33;27.88;;;15.48;;
46355;SDS011;32066;49.474;11.106;2022-12-16T13:55:02;23.65;;;14.82;;
46355;SDS011;32066;49.474;11.106;2022-12-16T13:57:57;25.63;;;14.57;;
46355;SDS011;32066;49.474;11.106;2022-12-16T14:00:53;26.42;;;14.77;;
46355;SDS011;32066;49.474;11.106;2022-12-16T14:03:56;26.58;;;15.32;;
46355;SDS011;32066;49.474;11.106;2022-12-16T14:06:42;26.08;;;15.65;;
46355;SDS011;32066;49.474;11.106;2022-12-16T14:09:29;25.40;;;14.75;;
46355;SDS011;32066;49.474;11.106;2022-12-16T14:12:23;25.85;;;15.65;;
46355;SDS011;32066;49.474;11.106;2022-12-16T14:15:35;27.30;;;15.20;;
46355;SDS011;32066;49.474;11.106;2022-12-16T14:18:31;26.00;;;15.47;;
46355;SDS011;32066;49.474;11.106;2022-12-16T14:21:37;27.02;;;15.10;;
46355;SDS011;32066;49.474;11.106;2022-12-16T14:24:26;24.98;;;14.60;;
46355;SDS011;32066;49.474;11.106;2022-12-16T14:27:15;27.77;;;15.82;;
46355;SDS011;32066;49.474;11.106;2022-12-16T14:30:02;27.08;;;15.27;;
46355;SDS011;32066;49.474;11.106;2022-12-16T14:32:57;26.60;;;15.97;;
46355;SDS011;32066;49.474;11.106;2022-12-16T14:35:37;26.42;;;15.27;;
46355;SDS011;32066;49.474;11.106;2022-12-16T14:38:34;28.35;;;16.70;;
46355;SDS011;32066;49.474;11.106;2022-12-16T14:41:19;26.52;;;15.52;;
46355;SDS011;32066;49.474;11.106;2022-12-16T14:44:15;27.98;;;16.75;;
46355;SDS011;32066;49.474;11.106;2022-12-16T14:47:02;26.20;;;15.73;;
46355;SDS011;32066;49.474;11.106;2022-12-16T14:49:48;26.27;;;15.33;;
46355;SDS011;32066;49.474;11.106;2022-12-16T14:52:35;28.40;;;15.77;;
46355;SDS011;32066;49.474;11.106;2022-12-16T14:55:34;24.58;;;15.20;;
46355;SDS011;32066;49.474;11.106;2022-12-16T14:58:19;26.08;;;15.40;;
46355;SDS011;32066;49.474;11.106;2022-12-16T15:01:08;28.88;;;16.38;;
46355;SDS011;32066;49.474;11.106;2022-12-16T15:03:57;26.80;;;15.43;;
46355;SDS011;32066;49.474;11.106;2022-12-16T15:06:45;25.27;;;14.52;;
46355;SDS011;32066;49.474;11.106;2022-12-16T15:09:32;26.75;;;15.23;;
46355;SDS011;32066;49.474;11.106;2022-12-16T15:12:21;27.50;;;15.82;;
46355;SDS011;32066;49.474;11.106;2022-12-16T15:15:09;28.00;;;15.52;;
46355;SDS011;32066;49.474;11.106;2022-12-16T15:17:58;28.38;;;16.17;;
46355;SDS011;32066;49.474;11.106;2022-12-16T15:20:47;28.98;;;15.55;;
46355;SDS011;32066;49.474;11.106;2022-12-16T15:23:33;29.17;;;16.48;;
46355;SDS011;32066;49.474;11.106;2022-12-16T15:26:22;24.80;;;14.77;;
46355;SDS011;32066;49.474;11.106;2022-12-16T15:29:23;24.70;;;14.52;;
46355;SDS011;32066;49.474;11.106;2022-12-16T15:32:27;30.17;;;16.27;;
46355;SDS011;32066;49.474;11.106;2022-12-16T15:35:23;26.77;;;15.02;;
46355;SDS011;32066;49.474;11.106;2022-12-16T15:38:15;29.35;;;15.82;;
46355;SDS011;32066;49.474;11.106;2022-12-16T15:41:13;25.92;;;15.70;;
46355;SDS011;32066;49.474;11.106;2022-12-16T15:44:10;25.00;;;15.23;;
46355;SDS011;32066;49.474;11.106;2022-12-16T15:46:57;26.70;;;14.98;;
46355;SDS011;32066;49.474;11.106;2022-12-16T15:49:43;26.20;;;15.15;;
46355;SDS011;32066;49.474;11.106;2022-12-16T15:52:32;26.77;;;16.17;;
46355;SDS011;32066;49.474;11.106;2022-12-16T15:55:24;25.23;;;16.00;;
46355;SDS011;32066;49.474;11.106;2022-12-16T15:58:14;23.25;;;14.50;;
46355;SDS011;32066;49.474;11.106;2022-12-16T16:01:03;27.08;;;15.05;;
46355;SDS011;32066;49.474;11.106;2022-12-16T16:03:50;25.67;;;15.30;;
46355;SDS011;32066;49.474;11.106;2022-12-16T16:06:47;27.45;;;15.43;;
46355;SDS011;32066;49.474;11.106;2022-12-16T16:09:35;26.45;;;15.30;;
46355;SDS011;32066;49.474;11.106;2022-12-16T16:12:22;26.38;;;15.75;;